You are listening to:
YSBK ATIS - Bankstown, New South Wales, Australia

YSSY 010630Z 27007KT 9999 -RA FEW018 BKN070 BKN085 12/11 Q1023

If stream doesn't start automatically press the play button
If stream stops then reload player then press play